createdAt,value
2023-05-17T00:01:39.587Z,14.48
2023-05-17T00:05:41.782Z,14.42
2023-05-17T00:09:43.958Z,14.35
2023-05-17T00:13:46.173Z,14.38
2023-05-17T00:17:48.410Z,14.54
2023-05-17T00:21:50.687Z,14.56
2023-05-17T00:25:52.885Z,14.59
2023-05-17T00:29:54.957Z,14.53
2023-05-17T00:33:57.236Z,14.51
2023-05-17T00:37:59.564Z,14.47
2023-05-17T00:42:01.867Z,14.45
2023-05-17T00:46:03.976Z,14.51
2023-05-17T00:50:07.158Z,14.46
2023-05-17T00:54:09.375Z,14.49
2023-05-17T00:58:15.233Z,14.45
2023-05-17T01:02:18.060Z,14.50
2023-05-17T01:06:20.704Z,14.37
2023-05-17T01:10:44.294Z,14.36
2023-05-17T01:14:52.652Z,14.29
2023-05-17T01:19:17.671Z,14.24
2023-05-17T01:23:39.256Z,14.33
2023-05-17T01:27:45.697Z,14.24
2023-05-17T01:31:49.488Z,14.39
2023-05-17T01:35:52.535Z,14.35
2023-05-17T01:39:55.844Z,14.46
2023-05-17T01:44:31.858Z,14.35
2023-05-17T01:48:39.968Z,14.24
2023-05-17T01:52:59.729Z,14.02
2023-05-17T01:57:06.184Z,14.25
2023-05-17T02:01:10.410Z,14.32
2023-05-17T02:05:12.767Z,14.22
2023-05-17T02:09:17.822Z,14.19
2023-05-17T02:13:19.581Z,14.26
2023-05-17T02:17:21.853Z,14.27
2023-05-17T02:21:24.180Z,14.16
2023-05-17T02:25:26.562Z,14.16
2023-05-17T02:29:29.241Z,14.07
2023-05-17T02:33:31.509Z,14.08
2023-05-17T02:37:33.800Z,14.00
2023-05-17T02:41:36.099Z,14.09
2023-05-17T02:45:38.225Z,14.11
2023-05-17T02:49:41.017Z,14.04
2023-05-17T02:53:43.254Z,14.05
2023-05-17T02:57:46.193Z,13.92
2023-05-17T03:01:50.204Z,14.02
2023-05-17T03:05:52.877Z,13.91
2023-05-17T03:09:54.980Z,14.00
2023-05-17T03:13:57.978Z,14.03
2023-05-17T03:18:02.986Z,14.02
2023-05-17T03:22:05.620Z,14.06
2023-05-17T03:26:09.136Z,14.07
2023-05-17T03:30:18.744Z,14.00
2023-05-17T03:34:21.986Z,13.89
2023-05-17T03:38:24.274Z,13.83
2023-05-17T03:42:27.269Z,13.93
2023-05-17T03:46:29.457Z,13.78
2023-05-17T03:50:32.758Z,13.90
2023-05-17T03:54:35.295Z,13.93
2023-05-17T03:58:37.911Z,13.99
2023-05-17T04:02:41.160Z,13.90
2023-05-17T04:06:43.824Z,13.95
2023-05-17T04:10:46.192Z,13.92
2023-05-17T04:14:48.471Z,13.81
2023-05-17T04:18:53.784Z,13.80
2023-05-17T04:22:56.115Z,13.84
2023-05-17T04:27:02.711Z,13.74
2023-05-17T04:31:08.815Z,13.85
2023-05-17T04:35:11.329Z,13.68
2023-05-17T04:39:14.508Z,13.66
2023-05-17T04:43:16.797Z,13.77
2023-05-17T04:47:19.040Z,13.77
2023-05-17T04:51:21.271Z,13.60
2023-05-17T04:55:23.702Z,13.73
2023-05-17T04:59:25.910Z,13.71
2023-05-17T05:03:28.113Z,13.67
2023-05-17T05:07:31.493Z,13.72
2023-05-17T05:11:33.844Z,13.72
2023-05-17T05:15:35.994Z,13.78
2023-05-17T05:19:39.690Z,13.76
2023-05-17T05:23:42.508Z,13.93
2023-05-17T05:27:46.229Z,13.83
2023-05-17T05:31:49.066Z,13.86
2023-05-17T05:35:51.672Z,13.84
2023-05-17T05:39:53.803Z,13.82
2023-05-17T05:43:56.119Z,13.79
2023-05-17T05:47:59.334Z,13.71
2023-05-17T05:52:02.955Z,13.89
2023-05-17T05:56:06.454Z,13.71
2023-05-17T06:00:09.793Z,13.68
2023-05-17T06:04:17.643Z,13.69
2023-05-17T06:08:19.760Z,13.85
2023-05-17T06:12:21.885Z,13.82
2023-05-17T06:16:23.911Z,13.76
2023-05-17T06:20:26.048Z,13.75
2023-05-17T06:24:28.185Z,13.87
2023-05-17T06:28:30.459Z,13.93
2023-05-17T06:32:32.659Z,13.75
2023-05-17T06:36:35.933Z,13.65
2023-05-17T06:40:39.574Z,13.69
2023-05-17T06:44:41.616Z,13.77
2023-05-17T06:48:43.971Z,13.70
2023-05-17T06:52:46.724Z,13.73
2023-05-17T06:56:48.825Z,13.84
2023-05-17T07:00:50.791Z,13.53
2023-05-17T07:04:53.073Z,13.59
2023-05-17T07:08:55.168Z,13.58
2023-05-17T07:12:57.212Z,13.63
2023-05-17T07:16:59.302Z,13.78
2023-05-17T07:21:04.249Z,13.63
2023-05-17T07:25:07.365Z,13.74
2023-05-17T07:29:09.472Z,13.92
2023-05-17T07:33:11.841Z,13.90
2023-05-17T07:37:13.911Z,14.11
2023-05-17T07:41:17.137Z,13.99
2023-05-17T07:45:19.727Z,13.90
2023-05-17T07:49:23.595Z,13.91
2023-05-17T07:53:25.952Z,14.11
2023-05-17T07:57:27.992Z,13.91
2023-05-17T08:01:30.068Z,13.97
2023-05-17T08:05:32.498Z,13.95
2023-05-17T08:09:34.816Z,13.84
2023-05-17T08:13:37.180Z,14.08
2023-05-17T08:17:39.307Z,13.93
2023-05-17T08:21:42.628Z,13.89
2023-05-17T08:25:44.674Z,14.03
2023-05-17T08:29:46.335Z,14.04
2023-05-17T08:33:48.471Z,14.03
2023-05-17T08:37:51.046Z,13.97
2023-05-17T08:41:53.743Z,13.92
2023-05-17T08:45:59.162Z,13.88
2023-05-17T08:50:02.143Z,13.79
2023-05-17T08:54:06.230Z,13.80
2023-05-17T08:58:09.178Z,13.93
2023-05-17T09:02:11.618Z,14.07
2023-05-17T09:06:14.842Z,13.92
2023-05-17T09:10:17.377Z,13.92
2023-05-17T09:14:19.578Z,13.92
2023-05-17T09:18:30.271Z,13.91
2023-05-17T09:22:32.813Z,13.86
2023-05-17T09:26:52.699Z,13.70
2023-05-17T09:30:54.813Z,13.79
2023-05-17T09:34:59.504Z,13.47
2023-05-17T09:39:05.861Z,13.68
2023-05-17T09:43:08.567Z,13.34
2023-05-17T09:47:10.642Z,13.52
2023-05-17T09:51:13.261Z,13.61
2023-05-17T09:55:15.874Z,13.43
2023-05-17T09:59:17.914Z,13.41
2023-05-17T10:03:21.522Z,13.30
2023-05-17T10:07:26.087Z,13.38
2023-05-17T10:11:34.213Z,13.01
2023-05-17T10:15:38.535Z,13.11
2023-05-17T10:19:41.549Z,12.99
2023-05-17T10:23:45.871Z,12.98
2023-05-17T10:27:50.798Z,13.06
2023-05-17T10:31:52.863Z,12.87
2023-05-17T10:35:56.429Z,12.78
2023-05-17T10:39:59.030Z,12.93
2023-05-17T10:44:04.611Z,13.09
2023-05-17T10:48:07.957Z,13.10
2023-05-17T10:52:18.393Z,13.01
2023-05-17T10:56:21.741Z,13.14
2023-05-17T11:00:27.912Z,13.20
2023-05-17T11:04:36.278Z,13.06
2023-05-17T11:09:05.704Z,12.91
2023-05-17T11:13:25.297Z,12.81
2023-05-17T11:17:34.082Z,12.68
2023-05-17T11:21:36.314Z,12.62
2023-05-17T11:25:40.553Z,12.55
2023-05-17T11:29:48.934Z,12.61
2023-05-17T11:33:54.143Z,12.67
2023-05-17T11:38:17.840Z,12.70
2023-05-17T11:42:26.017Z,12.80
2023-05-17T11:46:28.297Z,12.88
2023-05-17T11:50:30.765Z,12.81
2023-05-17T11:54:34.141Z,12.91
2023-05-17T11:58:36.900Z,12.96
2023-05-17T12:02:39.160Z,12.89
2023-05-17T12:06:42.463Z,12.83
2023-05-17T12:10:46.579Z,12.90
2023-05-17T12:14:48.983Z,12.86
2023-05-17T12:18:52.184Z,12.99
2023-05-17T12:22:55.943Z,13.07
2023-05-17T12:26:58.075Z,13.11
2023-05-17T12:31:03.948Z,13.05
2023-05-17T12:35:06.318Z,13.12
2023-05-17T12:39:11.182Z,13.27
2023-05-17T12:43:13.374Z,13.24
2023-05-17T12:47:15.667Z,13.40
2023-05-17T12:51:23.730Z,13.23
2023-05-17T12:55:26.376Z,13.35
2023-05-17T12:59:29.264Z,13.06
2023-05-17T13:03:31.775Z,13.01
2023-05-17T13:07:33.971Z,12.98
2023-05-17T13:11:40.827Z,13.01
2023-05-17T13:15:47.261Z,13.05
2023-05-17T13:19:49.695Z,13.14
2023-05-17T13:23:51.881Z,13.20
2023-05-17T13:27:55.499Z,13.32
2023-05-17T13:31:57.596Z,13.30
2023-05-17T13:35:59.782Z,13.30
2023-05-17T13:40:03.250Z,13.66
2023-05-17T13:44:05.703Z,13.51
2023-05-17T13:48:07.837Z,13.43
2023-05-17T13:52:10.176Z,13.46
2023-05-17T13:56:12.249Z,13.34
2023-05-17T14:00:14.764Z,13.40
2023-05-17T14:04:17.056Z,13.48
2023-05-17T14:08:20.267Z,13.34
2023-05-17T14:12:22.381Z,13.67
2023-05-17T14:16:24.120Z,13.68
2023-05-17T14:20:26.265Z,13.67
2023-05-17T14:24:28.325Z,13.79
2023-05-17T14:28:30.466Z,13.74
2023-05-17T14:32:32.547Z,13.51
2023-05-17T14:36:36.405Z,13.60
2023-05-17T14:40:38.472Z,13.60
2023-05-17T14:44:40.615Z,13.57
2023-05-17T14:48:42.733Z,13.60
2023-05-17T14:52:44.932Z,13.64
2023-05-17T14:56:47.241Z,13.57
2023-05-17T15:00:54.162Z,13.39
2023-05-17T15:04:58.432Z,13.41
2023-05-17T15:09:02.248Z,13.42
2023-05-17T15:13:04.512Z,13.35
2023-05-17T15:17:06.969Z,13.34
2023-05-17T15:21:10.523Z,13.05
2023-05-17T15:25:12.694Z,13.20
2023-05-17T15:29:14.804Z,13.10
2023-05-17T15:33:17.835Z,13.20
2023-05-17T15:37:20.157Z,13.13
2023-05-17T15:41:29.134Z,13.04
2023-05-17T15:45:33.051Z,12.91
2023-05-17T15:49:35.785Z,12.83
2023-05-17T15:53:38.651Z,12.79
2023-05-17T15:57:42.590Z,12.71
2023-05-17T16:01:46.412Z,12.65
2023-05-17T16:05:48.693Z,12.65
2023-05-17T16:09:50.878Z,12.70
2023-05-17T16:13:52.892Z,12.73
2023-05-17T16:17:55.091Z,12.87
2023-05-17T16:21:57.913Z,12.94
2023-05-17T16:26:00.116Z,12.81
2023-05-17T16:30:02.151Z,12.83
2023-05-17T16:34:04.345Z,12.79
2023-05-17T16:38:06.459Z,12.79
2023-05-17T16:42:08.481Z,12.83
2023-05-17T16:46:10.563Z,12.95
2023-05-17T16:50:13.553Z,12.85
2023-05-17T16:54:15.582Z,12.98
2023-05-17T16:58:17.751Z,12.93
2023-05-17T17:02:20.102Z,12.87
2023-05-17T17:06:22.416Z,12.78
2023-05-17T17:10:24.553Z,12.88
2023-05-17T17:14:26.578Z,12.83
2023-05-17T17:18:29.407Z,12.93
2023-05-17T17:22:32.206Z,12.96
2023-05-17T17:26:35.466Z,13.06
2023-05-17T17:30:37.706Z,13.11
2023-05-17T17:34:39.893Z,13.02
2023-05-17T17:38:41.927Z,13.00
2023-05-17T17:42:43.946Z,13.09
2023-05-17T17:46:46.195Z,13.12
2023-05-17T17:50:48.203Z,13.00
2023-05-17T17:54:50.381Z,13.07
2023-05-17T17:58:56.123Z,13.06
2023-05-17T18:02:58.274Z,13.02
2023-05-17T18:07:02.001Z,12.97
2023-05-17T18:11:04.269Z,13.02
2023-05-17T18:15:06.755Z,12.95
2023-05-17T18:19:08.836Z,13.01
2023-05-17T18:23:10.993Z,13.01
2023-05-17T18:27:14.204Z,13.07
2023-05-17T18:31:18.279Z,13.08
2023-05-17T18:35:20.598Z,13.02
2023-05-17T18:39:22.702Z,12.93
2023-05-17T18:43:24.764Z,12.83
2023-05-17T18:47:27.963Z,12.89
2023-05-17T18:51:31.508Z,12.77
2023-05-17T18:55:33.557Z,12.89
2023-05-17T18:59:35.912Z,12.87
2023-05-17T19:03:38.077Z,12.80
2023-05-17T19:07:40.164Z,12.65
2023-05-17T19:11:42.424Z,12.71
2023-05-17T19:15:44.414Z,12.71
2023-05-17T19:19:46.654Z,12.65
2023-05-17T19:23:49.005Z,12.60
2023-05-17T19:27:51.105Z,12.63
2023-05-17T19:31:53.218Z,12.57
2023-05-17T19:35:55.993Z,12.61
2023-05-17T19:39:59.014Z,12.47
2023-05-17T19:44:01.028Z,12.45
2023-05-17T19:48:05.245Z,12.45
2023-05-17T19:52:07.519Z,12.23
2023-05-17T19:56:10.255Z,12.20
2023-05-17T20:00:12.589Z,12.21
2023-05-17T20:04:15.209Z,12.31
2023-05-17T20:08:17.266Z,12.17
2023-05-17T20:12:19.538Z,12.13
2023-05-17T20:16:21.830Z,12.01
2023-05-17T20:20:25.067Z,12.09
2023-05-17T20:24:29.055Z,12.23
2023-05-17T20:28:31.231Z,12.13
2023-05-17T20:32:33.279Z,12.10
2023-05-17T20:36:35.473Z,11.88
2023-05-17T20:40:37.651Z,11.84
2023-05-17T20:44:40.294Z,11.90
2023-05-17T20:48:43.078Z,12.02
2023-05-17T20:52:45.533Z,12.01
2023-05-17T20:56:47.713Z,11.88
2023-05-17T21:00:49.931Z,11.83
2023-05-17T21:04:55.084Z,11.70
2023-05-17T21:09:02.322Z,11.78
2023-05-17T21:13:04.537Z,11.51
2023-05-17T21:17:06.666Z,11.71
2023-05-17T21:21:08.921Z,11.66
2023-05-17T21:29:25.432Z,11.35
2023-05-17T21:33:32.334Z,11.44
2023-05-17T21:37:34.624Z,11.24
2023-05-17T21:41:36.724Z,11.30
2023-05-17T21:45:41.243Z,11.12
2023-05-17T21:49:43.302Z,11.19
2023-05-17T21:53:45.511Z,11.04
2023-05-17T21:57:47.884Z,11.18
2023-05-17T22:01:50.031Z,11.04
2023-05-17T22:05:52.565Z,11.06
2023-05-17T22:09:55.202Z,11.04
2023-05-17T22:13:58.089Z,10.95
2023-05-17T22:18:03.268Z,10.89
2023-05-17T22:22:05.479Z,10.65
2023-05-17T22:26:08.102Z,10.84
2023-05-17T22:30:10.485Z,10.72
2023-05-17T22:34:12.585Z,10.71
2023-05-17T22:38:15.889Z,10.83
2023-05-17T22:42:18.004Z,10.66
2023-05-17T22:46:20.135Z,10.64
2023-05-17T22:50:24.530Z,10.29
2023-05-17T22:54:26.813Z,10.16
2023-05-17T22:58:28.912Z,10.17
2023-05-17T23:02:30.929Z,9.94
2023-05-17T23:06:34.404Z,10.03
2023-05-17T23:10:37.811Z,9.80
2023-05-17T23:14:40.039Z,9.54
2023-05-17T23:18:42.317Z,9.47
2023-05-17T23:22:44.442Z,9.61
2023-05-17T23:26:47.559Z,9.50
2023-05-17T23:30:51.561Z,9.56
2023-05-17T23:34:58.287Z,9.51
2023-05-17T23:39:00.534Z,9.47
2023-05-17T23:43:03.760Z,9.52
2023-05-17T23:47:05.885Z,9.45
2023-05-17T23:51:07.878Z,9.21
2023-05-17T23:55:10.228Z,9.30
2023-05-17T23:59:12.538Z,9.20
